sensor_id;sensor_type;location;lat;lon;timestamp;pressure;altitude;pressure_sealevel;temperature;humidity
50632;BME280;49583;45.590;-122.498;2024-03-22T00:01:13;101329.24;;;17.42;49.65
50632;BME280;49583;45.590;-122.498;2024-03-22T00:03:26;101327.13;;;17.44;49.66
50632;BME280;49583;45.590;-122.498;2024-03-22T00:05:39;101328.40;;;17.47;49.62
50632;BME280;49583;45.590;-122.498;2024-03-22T00:07:51;101327.88;;;17.49;49.61
50632;BME280;49583;45.590;-122.498;2024-03-22T00:10:04;101329.36;;;17.48;49.42
50632;BME280;49583;45.590;-122.498;2024-03-22T00:12:16;101322.32;;;17.47;49.38
50632;BME280;49583;45.590;-122.498;2024-03-22T00:14:28;101324.84;;;17.46;49.32
50632;BME280;49583;45.590;-122.498;2024-03-22T00:16:44;101325.31;;;17.46;49.22
50632;BME280;49583;45.590;-122.498;2024-03-22T00:18:57;101319.99;;;17.43;49.05
50632;BME280;49583;45.590;-122.498;2024-03-22T00:21:10;101320.46;;;17.40;48.97
50632;BME280;49583;45.590;-122.498;2024-03-22T00:23:22;101323.87;;;17.40;49.23
50632;BME280;49583;45.590;-122.498;2024-03-22T00:25:34;101328.05;;;17.38;49.19
50632;BME280;49583;45.590;-122.498;2024-03-22T00:27:47;101327.40;;;17.33;49.22
50632;BME280;49583;45.590;-122.498;2024-03-22T00:29:59;101328.41;;;17.28;49.09
50632;BME280;49583;45.590;-122.498;2024-03-22T00:32:12;101327.83;;;17.22;49.06
50632;BME280;49583;45.590;-122.498;2024-03-22T00:34:24;101324.00;;;17.14;49.09
50632;BME280;49583;45.590;-122.498;2024-03-22T00:36:37;101324.83;;;17.07;49.45
50632;BME280;49583;45.590;-122.498;2024-03-22T00:38:49;101327.73;;;17.02;49.58
50632;BME280;49583;45.590;-122.498;2024-03-22T00:41:01;101322.08;;;16.95;49.81
50632;BME280;49583;45.590;-122.498;2024-03-22T00:43:14;101326.27;;;16.94;50.11
50632;BME280;49583;45.590;-122.498;2024-03-22T00:45:26;101329.94;;;16.86;50.38
50632;BME280;49583;45.590;-122.498;2024-03-22T00:47:38;101322.23;;;16.82;50.58
50632;BME280;49583;45.590;-122.498;2024-03-22T00:49:50;101321.27;;;16.78;50.72
50632;BME280;49583;45.590;-122.498;2024-03-22T00:52:04;101321.31;;;16.73;50.74
50632;BME280;49583;45.590;-122.498;2024-03-22T00:54:16;101324.55;;;16.71;50.92
50632;BME280;49583;45.590;-122.498;2024-03-22T00:56:29;101322.64;;;16.69;51.17
50632;BME280;49583;45.590;-122.498;2024-03-22T00:58:41;101311.77;;;16.62;51.13
50632;BME280;49583;45.590;-122.498;2024-03-22T01:00:53;101316.27;;;16.57;51.09
50632;BME280;49583;45.590;-122.498;2024-03-22T01:03:05;101314.01;;;16.50;51.34
50632;BME280;49583;45.590;-122.498;2024-03-22T01:05:18;101317.95;;;16.47;51.29
50632;BME280;49583;45.590;-122.498;2024-03-22T01:07:31;101314.69;;;16.45;51.41
50632;BME280;49583;45.590;-122.498;2024-03-22T01:09:42;101315.23;;;16.42;51.42
50632;BME280;49583;45.590;-122.498;2024-03-22T01:11:55;101318.02;;;16.37;51.54
50632;BME280;49583;45.590;-122.498;2024-03-22T01:14:07;101318.70;;;16.32;51.60
50632;BME280;49583;45.590;-122.498;2024-03-22T01:16:19;101318.27;;;16.30;51.70
50632;BME280;49583;45.590;-122.498;2024-03-22T01:18:32;101316.59;;;16.27;51.74
50632;BME280;49583;45.590;-122.498;2024-03-22T01:20:45;101317.88;;;16.19;51.72
50632;BME280;49583;45.590;-122.498;2024-03-22T01:22:58;101316.50;;;16.14;51.84
50632;BME280;49583;45.590;-122.498;2024-03-22T01:25:11;101311.88;;;16.10;51.99
50632;BME280;49583;45.590;-122.498;2024-03-22T01:27:23;101311.61;;;16.07;52.11
50632;BME280;49583;45.590;-122.498;2024-03-22T01:29:36;101308.02;;;16.02;52.23
50632;BME280;49583;45.590;-122.498;2024-03-22T01:31:48;101320.17;;;16.02;52.43
50632;BME280;49583;45.590;-122.498;2024-03-22T01:34:00;101324.52;;;16.01;52.65
50632;BME280;49583;45.590;-122.498;2024-03-22T01:36:12;101323.78;;;15.99;52.79
50632;BME280;49583;45.590;-122.498;2024-03-22T01:38:25;101318.39;;;15.97;52.96
50632;BME280;49583;45.590;-122.498;2024-03-22T01:40:38;101318.22;;;15.97;53.17
50632;BME280;49583;45.590;-122.498;2024-03-22T01:42:50;101314.93;;;15.92;53.33
50632;BME280;49583;45.590;-122.498;2024-03-22T01:45:06;101318.11;;;15.92;53.60
50632;BME280;49583;45.590;-122.498;2024-03-22T01:47:18;101317.44;;;15.89;53.63
50632;BME280;49583;45.590;-122.498;2024-03-22T01:49:30;101322.31;;;15.87;53.80
50632;BME280;49583;45.590;-122.498;2024-03-22T01:51:42;101321.64;;;15.82;54.05
50632;BME280;49583;45.590;-122.498;2024-03-22T01:53:56;101317.51;;;15.79;54.28
50632;BME280;49583;45.590;-122.498;2024-03-22T01:56:10;101314.79;;;15.76;54.37
50632;BME280;49583;45.590;-122.498;2024-03-22T01:58:23;101314.17;;;15.71;54.55
50632;BME280;49583;45.590;-122.498;2024-03-22T02:00:36;101313.02;;;15.66;54.73
50632;BME280;49583;45.590;-122.498;2024-03-22T02:02:48;101314.66;;;15.63;54.92
50632;BME280;49583;45.590;-122.498;2024-03-22T02:05:05;101314.34;;;15.58;55.00
50632;BME280;49583;45.590;-122.498;2024-03-22T02:07:22;101320.32;;;15.54;55.17
50632;BME280;49583;45.590;-122.498;2024-03-22T02:09:35;101320.95;;;15.52;55.35
50632;BME280;49583;45.590;-122.498;2024-03-22T02:11:47;101321.63;;;15.50;55.64
50632;BME280;49583;45.590;-122.498;2024-03-22T02:13:57;101323.60;;;15.47;55.70
50632;BME280;49583;45.590;-122.498;2024-03-22T02:16:10;101325.14;;;15.45;55.77
50632;BME280;49583;45.590;-122.498;2024-03-22T02:18:22;101328.09;;;15.42;55.97
50632;BME280;49583;45.590;-122.498;2024-03-22T02:20:34;101327.05;;;15.39;56.07
50632;BME280;49583;45.590;-122.498;2024-03-22T02:22:47;101329.77;;;15.37;56.22
50632;BME280;49583;45.590;-122.498;2024-03-22T02:25:02;101327.39;;;15.36;56.36
50632;BME280;49583;45.590;-122.498;2024-03-22T02:27:14;101328.70;;;15.33;56.39
50632;BME280;49583;45.590;-122.498;2024-03-22T02:29:26;101328.20;;;15.30;56.53
50632;BME280;49583;45.590;-122.498;2024-03-22T02:31:38;101322.07;;;15.26;56.65
50632;BME280;49583;45.590;-122.498;2024-03-22T02:33:50;101322.45;;;15.24;56.66
50632;BME280;49583;45.590;-122.498;2024-03-22T02:36:03;101320.42;;;15.21;56.83
50632;BME280;49583;45.590;-122.498;2024-03-22T02:38:15;101319.77;;;15.18;57.00
50632;BME280;49583;45.590;-122.498;2024-03-22T02:40:27;101317.98;;;15.14;57.02
50632;BME280;49583;45.590;-122.498;2024-03-22T02:42:40;101316.75;;;15.11;57.18
50632;BME280;49583;45.590;-122.498;2024-03-22T02:44:52;101317.29;;;15.09;57.25
50632;BME280;49583;45.590;-122.498;2024-03-22T02:47:04;101314.41;;;15.07;57.38
50632;BME280;49583;45.590;-122.498;2024-03-22T02:49:17;101311.92;;;15.03;57.55
50632;BME280;49583;45.590;-122.498;2024-03-22T02:51:29;101306.98;;;14.98;57.76
50632;BME280;49583;45.590;-122.498;2024-03-22T02:53:42;101304.67;;;14.97;57.87
50632;BME280;49583;45.590;-122.498;2024-03-22T02:55:54;101300.13;;;14.92;58.01
50632;BME280;49583;45.590;-122.498;2024-03-22T02:58:06;101300.89;;;14.90;58.09
50632;BME280;49583;45.590;-122.498;2024-03-22T03:00:20;101296.74;;;14.88;58.32
50632;BME280;49583;45.590;-122.498;2024-03-22T03:02:33;101299.20;;;14.83;58.46
50632;BME280;49583;45.590;-122.498;2024-03-22T03:04:45;101296.14;;;14.78;58.49
50632;BME280;49583;45.590;-122.498;2024-03-22T03:06:55;101296.08;;;14.74;58.71
50632;BME280;49583;45.590;-122.498;2024-03-22T03:09:09;101292.02;;;14.70;58.72
50632;BME280;49583;45.590;-122.498;2024-03-22T03:11:21;101291.38;;;14.66;59.04
50632;BME280;49583;45.590;-122.498;2024-03-22T03:13:34;101292.92;;;14.62;59.19
50632;BME280;49583;45.590;-122.498;2024-03-22T03:15:46;101293.97;;;14.59;59.42
50632;BME280;49583;45.590;-122.498;2024-03-22T03:17:58;101298.31;;;14.55;59.38
50632;BME280;49583;45.590;-122.498;2024-03-22T03:20:11;101300.83;;;14.53;59.73
50632;BME280;49583;45.590;-122.498;2024-03-22T03:22:25;101300.87;;;14.52;59.76
50632;BME280;49583;45.590;-122.498;2024-03-22T03:24:38;101303.11;;;14.48;59.88
50632;BME280;49583;45.590;-122.498;2024-03-22T03:26:47;101302.59;;;14.45;60.03
50632;BME280;49583;45.590;-122.498;2024-03-22T03:29:01;101306.70;;;14.41;60.11
50632;BME280;49583;45.590;-122.498;2024-03-22T03:31:13;101308.20;;;14.37;60.22
50632;BME280;49583;45.590;-122.498;2024-03-22T03:33:23;101306.62;;;14.33;60.30
50632;BME280;49583;45.590;-122.498;2024-03-22T03:35:35;101307.33;;;14.29;60.38
50632;BME280;49583;45.590;-122.498;2024-03-22T03:37:44;101306.23;;;14.23;60.42
50632;BME280;49583;45.590;-122.498;2024-03-22T03:39:57;101303.78;;;14.19;60.72
50632;BME280;49583;45.590;-122.498;2024-03-22T03:42:09;101305.38;;;14.15;60.68
50632;BME280;49583;45.590;-122.498;2024-03-22T03:44:21;101302.50;;;14.08;60.92
50632;BME280;49583;45.590;-122.498;2024-03-22T03:46:34;101306.48;;;14.06;60.99
50632;BME280;49583;45.590;-122.498;2024-03-22T03:48:46;101311.85;;;14.03;61.05
50632;BME280;49583;45.590;-122.498;2024-03-22T03:50:59;101310.95;;;14.00;61.21
50632;BME280;49583;45.590;-122.498;2024-03-22T03:53:12;101310.49;;;13.97;61.30
50632;BME280;49583;45.590;-122.498;2024-03-22T03:55:26;101310.82;;;13.94;61.38
50632;BME280;49583;45.590;-122.498;2024-03-22T03:57:38;101312.54;;;13.92;61.60
50632;BME280;49583;45.590;-122.498;2024-03-22T03:59:50;101317.67;;;13.89;61.66
50632;BME280;49583;45.590;-122.498;2024-03-22T04:02:05;101318.93;;;13.84;61.80
50632;BME280;49583;45.590;-122.498;2024-03-22T04:04:17;101321.73;;;13.79;61.71
50632;BME280;49583;45.590;-122.498;2024-03-22T04:06:29;101317.33;;;13.74;61.86
50632;BME280;49583;45.590;-122.498;2024-03-22T04:08:42;101309.19;;;13.69;62.01
50632;BME280;49583;45.590;-122.498;2024-03-22T04:10:55;101308.73;;;13.69;61.99
50632;BME280;49583;45.590;-122.498;2024-03-22T04:13:08;101303.88;;;13.66;62.39
50632;BME280;49583;45.590;-122.498;2024-03-22T04:15:21;101299.09;;;13.63;62.53
50632;BME280;49583;45.590;-122.498;2024-03-22T04:17:34;101298.75;;;13.61;62.52
50632;BME280;49583;45.590;-122.498;2024-03-22T04:19:47;101293.45;;;13.56;62.73
50632;BME280;49583;45.590;-122.498;2024-03-22T04:22:02;101295.48;;;13.55;62.63
50632;BME280;49583;45.590;-122.498;2024-03-22T04:24:14;101299.14;;;13.52;62.89
50632;BME280;49583;45.590;-122.498;2024-03-22T04:26:27;101304.64;;;13.48;62.85
50632;BME280;49583;45.590;-122.498;2024-03-22T04:28:39;101302.92;;;13.45;62.96
50632;BME280;49583;45.590;-122.498;2024-03-22T04:30:59;101303.09;;;13.42;63.13
50632;BME280;49583;45.590;-122.498;2024-03-22T04:33:12;101302.81;;;13.40;63.33
50632;BME280;49583;45.590;-122.498;2024-03-22T04:35:25;101301.46;;;13.38;63.41
50632;BME280;49583;45.590;-122.498;2024-03-22T04:37:39;101304.46;;;13.35;63.41
50632;BME280;49583;45.590;-122.498;2024-03-22T04:39:52;101304.06;;;13.31;63.51
50632;BME280;49583;45.590;-122.498;2024-03-22T04:42:05;101302.31;;;13.30;63.62
50632;BME280;49583;45.590;-122.498;2024-03-22T04:44:17;101297.18;;;13.25;63.86
50632;BME280;49583;45.590;-122.498;2024-03-22T04:46:29;101296.98;;;13.24;63.92
50632;BME280;49583;45.590;-122.498;2024-03-22T04:48:44;101294.81;;;13.21;64.19
50632;BME280;49583;45.590;-122.498;2024-03-22T04:50:56;101304.98;;;13.23;64.15
50632;BME280;49583;45.590;-122.498;2024-03-22T04:53:08;101304.92;;;13.23;64.16
50632;BME280;49583;45.590;-122.498;2024-03-22T04:55:22;101301.93;;;13.19;64.05
50632;BME280;49583;45.590;-122.498;2024-03-22T04:57:35;101298.50;;;13.17;64.13
50632;BME280;49583;45.590;-122.498;2024-03-22T04:59:47;101293.74;;;13.14;64.24
50632;BME280;49583;45.590;-122.498;2024-03-22T05:01:59;101294.75;;;13.12;64.47
50632;BME280;49583;45.590;-122.498;2024-03-22T05:04:11;101293.63;;;13.10;64.55
50632;BME280;49583;45.590;-122.498;2024-03-22T05:06:20;101290.74;;;13.08;64.62
50632;BME280;49583;45.590;-122.498;2024-03-22T05:08:32;101292.44;;;13.06;64.58
50632;BME280;49583;45.590;-122.498;2024-03-22T05:10:45;101284.38;;;13.04;64.77
50632;BME280;49583;45.590;-122.498;2024-03-22T05:12:57;101280.17;;;13.02;64.55
50632;BME280;49583;45.590;-122.498;2024-03-22T05:15:10;101278.74;;;13.01;64.80
50632;BME280;49583;45.590;-122.498;2024-03-22T05:17:24;101280.46;;;13.01;64.70
50632;BME280;49583;45.590;-122.498;2024-03-22T05:19:37;101286.54;;;13.02;65.04
50632;BME280;49583;45.590;-122.498;2024-03-22T05:21:49;101283.55;;;13.02;64.96
50632;BME280;49583;45.590;-122.498;2024-03-22T05:24:05;101283.52;;;13.01;65.01
50632;BME280;49583;45.590;-122.498;2024-03-22T05:26:17;101283.20;;;13.00;65.09
50632;BME280;49583;45.590;-122.498;2024-03-22T05:28:31;101287.44;;;13.00;65.02
50632;BME280;49583;45.590;-122.498;2024-03-22T05:30:43;101288.36;;;12.99;65.08
50632;BME280;49583;45.590;-122.498;2024-03-22T05:32:55;101287.98;;;12.99;65.10
50632;BME280;49583;45.590;-122.498;2024-03-22T05:35:05;101290.10;;;12.99;65.32
50632;BME280;49583;45.590;-122.498;2024-03-22T05:37:17;101285.42;;;12.97;65.28
50632;BME280;49583;45.590;-122.498;2024-03-22T05:39:31;101278.04;;;12.94;65.20
50632;BME280;49583;45.590;-122.498;2024-03-22T05:41:44;101275.43;;;12.93;65.52
50632;BME280;49583;45.590;-122.498;2024-03-22T05:43:58;101263.35;;;12.90;65.38
50632;BME280;49583;45.590;-122.498;2024-03-22T05:46:10;101259.64;;;12.86;65.46
50632;BME280;49583;45.590;-122.498;2024-03-22T05:48:23;101259.33;;;12.84;65.49
50632;BME280;49583;45.590;-122.498;2024-03-22T05:50:38;101253.91;;;12.82;65.49
50632;BME280;49583;45.590;-122.498;2024-03-22T05:52:50;101245.95;;;12.81;65.71
50632;BME280;49583;45.590;-122.498;2024-03-22T05:55:09;101242.54;;;12.79;65.68
50632;BME280;49583;45.590;-122.498;2024-03-22T05:57:22;101247.40;;;12.79;65.85
50632;BME280;49583;45.590;-122.498;2024-03-22T05:59:36;101245.96;;;12.78;66.05
50632;BME280;49583;45.590;-122.498;2024-03-22T06:01:49;101251.14;;;12.77;65.97
50632;BME280;49583;45.590;-122.498;2024-03-22T06:04:02;101245.36;;;12.75;66.08
50632;BME280;49583;45.590;-122.498;2024-03-22T06:06:14;101241.79;;;12.70;66.24
50632;BME280;49583;45.590;-122.498;2024-03-22T06:08:26;101238.09;;;12.69;66.11
50632;BME280;49583;45.590;-122.498;2024-03-22T06:10:35;101234.92;;;12.68;66.39
50632;BME280;49583;45.590;-122.498;2024-03-22T06:12:47;101230.54;;;12.65;66.29
50632;BME280;49583;45.590;-122.498;2024-03-22T06:15:00;101230.91;;;12.60;66.40
50632;BME280;49583;45.590;-122.498;2024-03-22T06:17:15;101231.80;;;12.54;66.35
50632;BME280;49583;45.590;-122.498;2024-03-22T06:19:29;101234.08;;;12.51;66.55
50632;BME280;49583;45.590;-122.498;2024-03-22T06:21:42;101231.16;;;12.47;66.69
50632;BME280;49583;45.590;-122.498;2024-03-22T06:23:54;101231.15;;;12.46;66.82
50632;BME280;49583;45.590;-122.498;2024-03-22T06:26:07;101223.36;;;12.42;67.04
50632;BME280;49583;45.590;-122.498;2024-03-22T06:28:19;101230.98;;;12.42;66.93
50632;BME280;49583;45.590;-122.498;2024-03-22T06:30:32;101229.91;;;12.37;67.07
50632;BME280;49583;45.590;-122.498;2024-03-22T06:32:45;101242.98;;;12.38;66.96
50632;BME280;49583;45.590;-122.498;2024-03-22T06:34:57;101240.14;;;12.35;67.00
50632;BME280;49583;45.590;-122.498;2024-03-22T06:37:10;101242.55;;;12.30;67.12
50632;BME280;49583;45.590;-122.498;2024-03-22T06:39:22;101248.73;;;12.29;67.06
50632;BME280;49583;45.590;-122.498;2024-03-22T06:41:34;101244.02;;;12.26;67.26
50632;BME280;49583;45.590;-122.498;2024-03-22T06:43:47;101241.73;;;12.22;67.25
50632;BME280;49583;45.590;-122.498;2024-03-22T06:46:00;101233.79;;;12.18;67.25
50632;BME280;49583;45.590;-122.498;2024-03-22T06:48:12;101232.77;;;12.14;67.37
50632;BME280;49583;45.590;-122.498;2024-03-22T06:50:28;101224.56;;;12.10;67.39
50632;BME280;49583;45.590;-122.498;2024-03-22T06:52:40;101224.21;;;12.08;67.54
50632;BME280;49583;45.590;-122.498;2024-03-22T06:54:52;101223.77;;;12.06;67.64
50632;BME280;49583;45.590;-122.498;2024-03-22T06:57:05;101229.96;;;12.02;67.65
50632;BME280;49583;45.590;-122.498;2024-03-22T06:59:18;101230.21;;;12.00;67.72
50632;BME280;49583;45.590;-122.498;2024-03-22T07:01:31;101223.52;;;11.98;67.83
50632;BME280;49583;45.590;-122.498;2024-03-22T07:03:43;101222.67;;;11.96;67.88
50632;BME280;49583;45.590;-122.498;2024-03-22T07:05:57;101213.86;;;11.92;67.83
50632;BME280;49583;45.590;-122.498;2024-03-22T07:08:11;101216.98;;;11.90;67.88
50632;BME280;49583;45.590;-122.498;2024-03-22T07:10:24;101206.09;;;11.85;67.99
50632;BME280;49583;45.590;-122.498;2024-03-22T07:12:37;101213.02;;;11.86;68.03
50632;BME280;49583;45.590;-122.498;2024-03-22T07:14:50;101208.18;;;11.83;68.08
50632;BME280;49583;45.590;-122.498;2024-03-22T07:17:02;101204.71;;;11.80;68.06
50632;BME280;49583;45.590;-122.498;2024-03-22T07:19:16;101199.11;;;11.79;68.13
50632;BME280;49583;45.590;-122.498;2024-03-22T07:21:28;101183.09;;;11.74;68.02
50632;BME280;49583;45.590;-122.498;2024-03-22T07:23:41;101185.11;;;11.72;68.16
50632;BME280;49583;45.590;-122.498;2024-03-22T07:25:53;101183.77;;;11.68;68.35
50632;BME280;49583;45.590;-122.498;2024-03-22T07:28:06;101181.02;;;11.65;68.31
50632;BME280;49583;45.590;-122.498;2024-03-22T07:30:18;101174.84;;;11.62;68.48
50632;BME280;49583;45.590;-122.498;2024-03-22T07:32:31;101170.70;;;11.56;68.42
50632;BME280;49583;45.590;-122.498;2024-03-22T07:34:47;101170.61;;;11.52;68.43
50632;BME280;49583;45.590;-122.498;2024-03-22T07:36:59;101164.93;;;11.48;68.56
50632;BME280;49583;45.590;-122.498;2024-03-22T07:39:22;101161.55;;;11.44;68.59
50632;BME280;49583;45.590;-122.498;2024-03-22T07:41:34;101160.91;;;11.41;68.69
50632;BME280;49583;45.590;-122.498;2024-03-22T07:43:46;101165.05;;;11.38;68.89
50632;BME280;49583;45.590;-122.498;2024-03-22T07:45:59;101163.36;;;11.32;68.90
50632;BME280;49583;45.590;-122.498;2024-03-22T07:48:11;101167.89;;;11.33;69.07
50632;BME280;49583;45.590;-122.498;2024-03-22T07:50:20;101164.48;;;11.30;69.19
50632;BME280;49583;45.590;-122.498;2024-03-22T07:52:33;101160.71;;;11.27;69.28
50632;BME280;49583;45.590;-122.498;2024-03-22T07:54:45;101160.79;;;11.25;69.26
50632;BME280;49583;45.590;-122.498;2024-03-22T07:56:58;101162.38;;;11.19;69.20
50632;BME280;49583;45.590;-122.498;2024-03-22T07:59:10;101164.56;;;11.16;69.47
50632;BME280;49583;45.590;-122.498;2024-03-22T08:01:22;101165.79;;;11.15;69.57
50632;BME280;49583;45.590;-122.498;2024-03-22T08:03:35;101167.54;;;11.12;69.57
50632;BME280;49583;45.590;-122.498;2024-03-22T08:05:48;101168.80;;;11.10;69.55
50632;BME280;49583;45.590;-122.498;2024-03-22T08:08:00;101171.30;;;11.07;69.87
50632;BME280;49583;45.590;-122.498;2024-03-22T08:10:13;101165.85;;;11.05;69.79
50632;BME280;49583;45.590;-122.498;2024-03-22T08:12:26;101162.70;;;11.02;69.81
50632;BME280;49583;45.590;-122.498;2024-03-22T08:14:40;101157.17;;;11.00;70.01
50632;BME280;49583;45.590;-122.498;2024-03-22T08:16:52;101151.32;;;10.98;69.98
50632;BME280;49583;45.590;-122.498;2024-03-22T08:19:04;101145.86;;;10.96;69.90
50632;BME280;49583;45.590;-122.498;2024-03-22T08:21:16;101149.14;;;10.93;70.03
50632;BME280;49583;45.590;-122.498;2024-03-22T08:23:30;101144.37;;;10.90;69.86
50632;BME280;49583;45.590;-122.498;2024-03-22T08:25:44;101139.16;;;10.86;69.99
50632;BME280;49583;45.590;-122.498;2024-03-22T08:27:56;101138.03;;;10.82;69.93
50632;BME280;49583;45.590;-122.498;2024-03-22T08:30:16;101150.43;;;10.80;70.14
50632;BME280;49583;45.590;-122.498;2024-03-22T08:32:28;101151.98;;;10.77;70.18
50632;BME280;49583;45.590;-122.498;2024-03-22T08:34:42;101147.09;;;10.72;70.31
50632;BME280;49583;45.590;-122.498;2024-03-22T08:36:54;101140.52;;;10.70;70.03
50632;BME280;49583;45.590;-122.498;2024-03-22T08:39:04;101135.77;;;10.68;70.33
50632;BME280;49583;45.590;-122.498;2024-03-22T08:41:19;101135.53;;;10.62;70.40
50632;BME280;49583;45.590;-122.498;2024-03-22T08:43:32;101134.17;;;10.56;70.29
50632;BME280;49583;45.590;-122.498;2024-03-22T08:45:45;101140.61;;;10.54;70.49
50632;BME280;49583;45.590;-122.498;2024-03-22T08:47:57;101135.14;;;10.51;70.35
50632;BME280;49583;45.590;-122.498;2024-03-22T08:50:10;101130.78;;;10.50;70.60
50632;BME280;49583;45.590;-122.498;2024-03-22T08:52:23;101135.48;;;10.47;70.49
50632;BME280;49583;45.590;-122.498;2024-03-22T08:54:35;101130.66;;;10.45;70.57
50632;BME280;49583;45.590;-122.498;2024-03-22T08:56:48;101134.28;;;10.43;70.74
50632;BME280;49583;45.590;-122.498;2024-03-22T08:59:01;101130.14;;;10.38;70.90
50632;BME280;49583;45.590;-122.498;2024-03-22T09:01:16;101130.71;;;10.33;70.98
50632;BME280;49583;45.590;-122.498;2024-03-22T09:03:29;101129.90;;;10.30;71.03
50632;BME280;49583;45.590;-122.498;2024-03-22T09:05:42;101126.80;;;10.26;70.81
50632;BME280;49583;45.590;-122.498;2024-03-22T09:08:08;101119.96;;;10.22;70.85
50632;BME280;49583;45.590;-122.498;2024-03-22T09:10:21;101118.69;;;10.21;70.92
50632;BME280;49583;45.590;-122.498;2024-03-22T09:12:34;101112.41;;;10.18;70.83
50632;BME280;49583;45.590;-122.498;2024-03-22T09:14:46;101102.52;;;10.15;70.76
50632;BME280;49583;45.590;-122.498;2024-03-22T09:16:59;101090.70;;;10.11;71.09
50632;BME280;49583;45.590;-122.498;2024-03-22T09:19:08;101087.02;;;10.09;71.16
50632;BME280;49583;45.590;-122.498;2024-03-22T09:21:22;101086.55;;;10.06;71.27
50632;BME280;49583;45.590;-122.498;2024-03-22T09:23:34;101086.49;;;10.04;71.40
50632;BME280;49583;45.590;-122.498;2024-03-22T09:25:47;101085.44;;;10.03;71.27
50632;BME280;49583;45.590;-122.498;2024-03-22T09:28:00;101086.10;;;10.02;71.56
50632;BME280;49583;45.590;-122.498;2024-03-22T09:30:16;101090.06;;;10.01;71.41
50632;BME280;49583;45.590;-122.498;2024-03-22T09:32:28;101082.86;;;9.98;71.59
50632;BME280;49583;45.590;-122.498;2024-03-22T09:34:44;101071.98;;;9.97;71.47
50632;BME280;49583;45.590;-122.498;2024-03-22T09:36:57;101057.88;;;9.96;71.34
50632;BME280;49583;45.590;-122.498;2024-03-22T09:39:09;101048.75;;;9.94;71.63
50632;BME280;49583;45.590;-122.498;2024-03-22T09:41:24;101045.29;;;9.94;71.95
50632;BME280;49583;45.590;-122.498;2024-03-22T09:43:37;101037.34;;;9.92;71.81
50632;BME280;49583;45.590;-122.498;2024-03-22T09:45:51;101031.39;;;9.91;72.00
50632;BME280;49583;45.590;-122.498;2024-03-22T09:48:05;101031.49;;;9.89;71.82
50632;BME280;49583;45.590;-122.498;2024-03-22T09:50:18;101037.38;;;9.90;72.16
50632;BME280;49583;45.590;-122.498;2024-03-22T09:52:30;101028.73;;;9.89;71.93
50632;BME280;49583;45.590;-122.498;2024-03-22T09:54:43;101023.73;;;9.86;72.17
50632;BME280;49583;45.590;-122.498;2024-03-22T09:57:00;101020.62;;;9.84;72.41
50632;BME280;49583;45.590;-122.498;2024-03-22T09:59:13;101010.61;;;9.84;72.33
50632;BME280;49583;45.590;-122.498;2024-03-22T10:01:26;101002.98;;;9.82;72.46
50632;BME280;49583;45.590;-122.498;2024-03-22T10:03:40;100999.11;;;9.78;72.03
50632;BME280;49583;45.590;-122.498;2024-03-22T10:05:52;100998.18;;;9.76;72.23
50632;BME280;49583;45.590;-122.498;2024-03-22T10:08:05;100995.07;;;9.73;72.12
50632;BME280;49583;45.590;-122.498;2024-03-22T10:10:18;100993.84;;;9.72;72.11
50632;BME280;49583;45.590;-122.498;2024-03-22T10:12:30;100989.77;;;9.69;72.16
50632;BME280;49583;45.590;-122.498;2024-03-22T10:14:45;100986.67;;;9.67;72.38
50632;BME280;49583;45.590;-122.498;2024-03-22T10:16:58;100981.61;;;9.65;72.36
50632;BME280;49583;45.590;-122.498;2024-03-22T10:19:10;100977.73;;;9.63;72.47
50632;BME280;49583;45.590;-122.498;2024-03-22T10:21:22;100969.05;;;9.63;72.72
50632;BME280;49583;45.590;-122.498;2024-03-22T10:23:34;100959.47;;;9.61;72.61
50632;BME280;49583;45.590;-122.498;2024-03-22T10:25:47;100961.37;;;9.62;72.68
50632;BME280;49583;45.590;-122.498;2024-03-22T10:28:00;100958.14;;;9.61;72.85
50632;BME280;49583;45.590;-122.498;2024-03-22T10:30:15;100952.19;;;9.60;72.72
50632;BME280;49583;45.590;-122.498;2024-03-22T10:32:28;100952.33;;;9.60;72.94
50632;BME280;49583;45.590;-122.498;2024-03-22T10:34:41;100959.13;;;9.59;73.08
50632;BME280;49583;45.590;-122.498;2024-03-22T10:36:53;100952.17;;;9.59;73.37
50632;BME280;49583;45.590;-122.498;2024-03-22T10:39:08;100950.69;;;9.60;73.07
50632;BME280;49583;45.590;-122.498;2024-03-22T10:41:22;100947.27;;;9.60;73.27
50632;BME280;49583;45.590;-122.498;2024-03-22T10:43:34;100943.05;;;9.61;73.20
50632;BME280;49583;45.590;-122.498;2024-03-22T10:48:46;100931.05;;;9.59;73.43
50632;BME280;49583;45.590;-122.498;2024-03-22T10:51:01;100931.21;;;9.62;73.43
50632;BME280;49583;45.590;-122.498;2024-03-22T10:53:16;100923.42;;;9.62;73.61
50632;BME280;49583;45.590;-122.498;2024-03-22T10:55:33;100915.99;;;9.62;73.53
50632;BME280;49583;45.590;-122.498;2024-03-22T10:57:46;100914.85;;;9.63;73.63
50632;BME280;49583;45.590;-122.498;2024-03-22T10:59:59;100909.99;;;9.63;73.66
50632;BME280;49583;45.590;-122.498;2024-03-22T11:02:15;100904.69;;;9.63;73.76
50632;BME280;49583;45.590;-122.498;2024-03-22T11:04:32;100903.52;;;9.63;73.71
50632;BME280;49583;45.590;-122.498;2024-03-22T11:06:49;100906.90;;;9.64;73.81
50632;BME280;49583;45.590;-122.498;2024-03-22T11:09:03;100905.44;;;9.64;73.96
50632;BME280;49583;45.590;-122.498;2024-03-22T11:11:17;100901.48;;;9.65;74.08
50632;BME280;49583;45.590;-122.498;2024-03-22T11:13:29;100895.79;;;9.65;74.06